Latest Weather Observations for Cape Moreton

IDQ60801

Issued at 8:32 am EST Friday 21 July 2017 (issued every 30 minutes, with the page automatically refreshed every 10 minutes)

About weather observations | Map of weather stations | Latest weather observations for QLD | Other Formats
Station Details ID: 040043 Name: CAPE MORETON LIGHTHOUSE Lat: -27.03 Lon: 153.47 Height: 99.9 m
Data from the previous 72 hours. | See also: Recent months at Cape Moreton
Date/Time
EST
Temp
°C
App
Temp
°C
Dew
Point
°C
Rel
Hum
%
Delta-T
°C
Wind Press
QNH
hPa
Press
MSL
hPa
Rain since
9am
mm
Dir  Spd
km/h
Gust
km/h
Spd
kts
Gust
kts
21/08:30am 14.1 9.7 4.9 54 4.3 SW 17 26 9 14 1018.3 1018.2 0.0
21/08:00am 13.0 8.1 4.9 58 3.7 SW 20 28 11 15 1017.9 1017.8 0.0
21/07:30am 12.2 6.7 4.2 58 3.6 SW 22 30 12 16 1017.7 1017.6 0.0
21/07:00am 11.8 6.3 4.1 59 3.5 SW 22 28 12 15 1017.3 1017.2 0.0
21/06:30am 11.7 6.6 4.0 59 3.5 SW 20 26 11 14 1017.1 1017.0 0.0
21/06:00am 12.0 7.5 4.0 58 3.6 SW 17 20 9 11 1016.8 1016.7 0.0
21/05:30am 11.9 7.7 3.9 58 3.6 SW 15 20 8 11 1016.5 1016.3 0.0
21/05:00am 12.0 7.4 3.8 57 3.7 SW 17 20 9 11 1016.1 1015.9 0.0
21/04:30am 12.0 7.5 4.0 58 3.6 SW 17 24 9 13 1015.9 1015.7 0.0
21/04:00am 12.2 7.1 3.9 57 3.7 SW 20 26 11 14 1015.6 1015.4 0.0
21/03:30am 12.6 8.0 3.8 55 4.0 WSW 17 24 9 13 1015.5 1015.3 0.0
21/03:00am 12.6 9.0 4.8 59 3.6 SW 13 20 7 11 1015.7 1015.5 0.0
21/02:30am 13.0 8.1 5.2 59 3.6 WSW 20 28 11 15 1015.5 1015.3 0.0
21/02:00am 13.8 11.5 5.7 58 3.8 NE 7 13 4 7 1015.6 1015.4 0.0
21/01:30am 13.2 9.4 5.6 60 3.6 SW 15 24 8 13 1015.4 1015.2 0.0
21/01:00am 13.9 8.8 4.2 52 4.5 SW 20 30 11 16 1015.5 1015.3 0.0
21/12:30am 14.4 8.2 4.1 50 4.7 SW 26 39 14 21 1015.3 1015.1 0.0
21/12:27am 14.4 7.8 4.1 50 4.7 WSW 28 46 15 25 1015.2 1015.0 0.0
21/12:00am 14.2 8.4 4.5 52 4.5 SW 24 39 13 21 1015.5 1015.3 0.0
 
Date/Time
EST
Temp
°C
App
Temp
°C
Dew
Point
°C
Rel
Hum
%
Delta-T
°C
Wind Press
QNH
hPa
Press
MSL
hPa
Rain since
9am
mm
Dir  Spd
km/h
Gust
km/h
Spd
kts
Gust
kts
20/11:30pm 14.3 7.8 4.6 52 4.5 WSW 28 39 15 21 1015.3 1015.1 0.0
20/11:00pm 14.4 9.4 4.4 51 4.6 W 20 26 11 14 1015.8 1015.6 0.0
20/10:30pm 15.0 10.2 5.5 53 4.5 WSW 20 32 11 17 1016.1 1015.9 0.0
20/10:00pm 14.9 9.4 5.7 54 4.4 WSW 24 32 13 17 1016.1 1015.9 0.0
20/09:30pm 15.1 9.8 5.0 51 4.8 WSW 22 32 12 17 1016.0 1015.8 0.0
20/09:00pm 15.4 9.8 5.3 51 4.8 WSW 24 35 13 19 1015.9 1015.7 0.0
20/08:30pm 15.8 9.8 5.1 49 5.1 WSW 26 33 14 18 1015.6 1015.4 0.0
20/08:00pm 16.3 11.1 5.3 48 5.3 WSW 22 32 12 17 1015.6 1015.4 0.0
20/07:30pm 16.0 11.7 5.3 49 5.1 WSW 17 22 9 12 1015.5 1015.3 0.0
20/07:00pm 16.7 11.9 5.6 48 5.4 WSW 20 26 11 14 1015.3 1015.1 0.0
20/06:30pm 16.9 11.8 5.8 48 5.4 WSW 22 39 12 21 1015.1 1014.9 0.0
20/06:00pm 17.0 12.3 5.9 48 5.4 WSW 20 32 11 17 1014.5 1014.3 0.0
20/05:30pm 16.9 12.7 5.8 48 5.4 SW 17 26 9 14 1014.8 1014.6 0.0
20/05:00pm 17.5 12.7 5.8 46 5.7 WSW 20 30 11 16 1014.7 1014.5 0.0
20/04:30pm 18.4 14.8 6.6 46 5.9 WSW 15 24 8 13 1014.1 1013.9 0.0
20/04:00pm 18.9 14.2 6.1 43 6.4 WSW 20 30 11 16 1014.3 1014.1 0.0
20/03:30pm 18.7 14.5 7.5 48 5.7 W 19 26 10 14 1014.2 1014.0 0.0
20/03:00pm 18.8 14.2 6.3 44 6.2 W 20 30 11 16 1014.2 1014.0 0.0
20/02:30pm 18.5 15.2 7.9 50 5.4 W 15 22 8 12 1014.6 1014.4 0.0
20/02:00pm 17.7 13.7 6.6 48 5.5 WNW 17 22 9 12 1014.8 1014.6 0.0
20/01:30pm 18.0 13.7 7.1 49 5.5 WNW 19 28 10 15 1015.1 1014.9 0.0
20/01:00pm 17.6 13.4 7.4 51 5.1 W 19 24 10 13 1015.3 1015.1 0.0
20/12:30pm 16.9 12.3 6.7 51 5.1 W 20 26 11 14 1015.4 1015.2 0.0
20/12:00pm 16.8 11.5 6.6 51 5.0 WSW 24 32 13 17 1016.0 1015.8 0.0
20/11:30am 16.6 11.8 7.5 55 4.6 WSW 22 35 12 19 1016.7 1016.6 0.0
20/11:00am 16.3 11.4 7.0 54 4.6 WSW 22 32 12 17 1017.0 1016.9 0.0
20/10:30am 16.1 10.8 6.8 54 4.6 WSW 24 32 13 17 1016.9 1016.8 0.0
20/10:00am 15.3 8.7 6.1 54 4.4 SW 30 41 16 22 1017.1 1017.0 0.0
20/09:30am 15.2 9.1 6.7 57 4.2 SW 28 43 15 23 1017.2 1017.1 0.0
20/09:00am 14.2 7.2 5.8 57 4.0 SW 32 46 17 25 1016.8 1016.7 0.0
20/08:30am 13.7 6.7 6.1 60 3.6 WSW 32 44 17 24 1016.5 1016.3 0.0
20/08:00am 13.2 6.9 5.9 61 3.5 WSW 28 41 15 22 1016.5 1016.3 0.0
20/07:30am 12.7 6.8 5.8 63 3.3 WSW 26 37 14 20 1016.5 1016.3 0.0
20/07:00am 12.2 6.6 5.6 64 3.1 SW 24 39 13 21 1016.4 1016.2 0.0
20/06:30am 12.3 5.9 5.2 62 3.3 SW 28 41 15 22 1016.1 1015.9 0.0
20/06:01am 12.3 5.9 5.0 61 3.4 SW 28 46 15 25 1015.8 1015.6 0.0
20/06:00am 12.3 6.2 5.0 61 3.4 SW 26 46 14 25 1015.8 1015.6 0.0
20/05:58am 12.4 5.9 4.9 60 3.5 SW 28 46 15 25 1015.7 1015.5 0.0
20/05:30am 12.1 7.7 5.0 62 3.3 SW 17 28 9 15 1015.4 1015.2 0.0
20/05:00am 12.4 7.5 5.3 62 3.3 WSW 20 28 11 15 1014.7 1014.5 0.0
20/04:30am 12.4 7.0 4.6 59 3.6 SW 22 30 12 16 1014.1 1013.9 0.0
20/04:00am 12.3 6.6 4.8 60 3.5 SW 24 33 13 18 1013.4 1013.2 0.0
20/03:30am 12.5 6.1 5.0 60 3.5 SW 28 41 15 22 1013.1 1012.9 0.0
20/03:00am 12.6 6.1 4.8 59 3.6 SW 28 37 15 20 1013.1 1012.9 0.0
20/02:30am 12.9 5.0 4.6 57 3.8 SW 35 48 19 26 1012.8 1012.6 0.0
20/02:00am 13.0 6.5 4.7 57 3.8 SW 28 43 15 23 1013.4 1013.2 0.0
20/01:30am 13.3 7.6 4.7 56 4.0 SW 24 39 13 21 1013.8 1013.6 0.0
20/01:00am 13.3 8.3 4.7 56 4.0 SW 20 32 11 17 1013.7 1013.5 0.0
20/12:30am 13.7 7.9 4.6 54 4.2 SW 24 44 13 24 1013.7 1013.5 0.0
20/12:00am 14.0 7.5 4.6 53 4.4 WSW 28 46 15 25 1013.9 1013.7 0.0
 
Date/Time
EST
Temp
°C
App
Temp
°C
Dew
Point
°C
Rel
Hum
%
Delta-T
°C
Wind Press
QNH
hPa
Press
MSL
hPa
Rain since
9am
mm
Dir  Spd
km/h
Gust
km/h
Spd
kts
Gust
kts
19/11:30pm 14.3 6.1 4.6 52 4.5 SW 37 57 20 31 1013.4 1013.2 0.0
19/11:02pm 14.5 6.6 4.2 50 4.8 SW 35 54 19 29 1014.0 1013.8 0.0
19/11:00pm 14.5 6.3 4.5 51 4.7 SW 37 52 20 28 1014.0 1013.8 0.0
19/10:30pm 14.8 6.9 4.2 49 4.9 SW 35 54 19 29 1014.1 1013.9 0.0
19/10:03pm 14.9 7.6 4.3 49 4.9 WSW 32 50 17 27 1014.4 1014.2 0.0
19/10:00pm 14.9 7.9 4.3 49 4.9 SW 30 46 16 25 1014.5 1014.3 0.0
19/09:30pm 15.1 7.2 4.5 49 5.0 WSW 35 56 19 30 1014.2 1014.0 0.0
19/09:00pm 15.4 6.0 4.2 47 5.2 WSW 43 61 23 33 1013.9 1013.7 0.0
19/08:37pm 15.5 8.2 4.3 47 5.2 WSW 32 50 17 27 1014.0 1013.8 0.0
19/08:30pm 15.5 8.2 4.3 47 5.2 WSW 32 46 17 25 1014.1 1013.9 0.0
19/08:00pm 15.7 9.0 3.8 45 5.5 WSW 28 50 15 27 1013.8 1013.6 0.0
19/07:47pm 15.9 7.9 4.0 45 5.5 WSW 35 54 19 29 1013.3 1013.1 0.0
19/07:30pm 16.0 8.4 3.8 44 5.7 WSW 33 48 18 26 1012.9 1012.7 0.0
19/07:00pm 16.3 6.7 3.4 42 6.0 WSW 43 65 23 35 1011.8 1011.7 0.0
19/06:30pm 16.4 6.7 2.8 40 6.2 WSW 43 61 23 33 1011.8 1011.7 0.0
19/06:16pm 16.4 8.1 2.4 39 6.3 WSW 35 56 19 30 1011.5 1011.4 0.0
19/06:00pm 16.0 8.4 3.1 42 5.9 WSW 32 44 17 24 1011.5 1011.4 0.0
19/05:44pm 16.0 8.4 2.8 41 6.0 WSW 32 50 17 27 1011.2 1011.1 0.0
19/05:30pm 16.0 8.4 2.8 41 6.0 WSW 32 43 17 23 1011.3 1011.2 0.0
19/05:00pm 16.4 9.9 2.4 39 6.3 WSW 26 37 14 20 1011.5 1011.4 0.0
19/04:30pm 17.1 9.2 2.3 37 6.7 SW 33 48 18 26 1010.9 1010.8 0.0
19/04:01pm 17.4 9.0 3.7 40 6.4 WSW 37 56 20 30 1010.3 1010.2 0.0
19/04:00pm 17.5 8.7 3.4 39 6.6 SW 39 56 21 30 1010.3 1010.2 0.0
19/03:49pm 17.5 9.8 3.4 39 6.6 WSW 33 52 18 28 1010.2 1010.1 0.0
19/03:30pm 17.6 9.5 3.1 38 6.7 WSW 35 50 19 27 1009.9 1009.8 0.0
19/03:03pm 18.0 9.6 3.5 38 6.8 WSW 37 56 20 30 1009.5 1009.4 0.0
19/03:00pm 18.0 9.2 3.5 38 6.8 WSW 39 56 21 30 1009.5 1009.4 0.0
19/02:30pm 18.2 10.7 3.3 37 7.0 WSW 32 54 17 29 1009.4 1009.3 0.0
19/02:04pm 18.1 10.4 3.6 38 6.8 WSW 33 52 18 28 1009.3 1009.2 0.0
19/02:00pm 18.0 9.7 2.3 35 7.2 WSW 35 52 19 28 1009.2 1009.1 0.0
19/01:45pm 18.0 9.8 2.7 36 7.1 W 35 54 19 29 1009.4 1009.3 0.0
19/01:30pm 17.8 8.8 2.2 35 7.1 W 39 56 21 30 1009.4 1009.3 0.0
19/01:00pm 17.8 8.7 1.7 34 7.3 WSW 39 57 21 31 1009.8 1009.7 0.0
19/12:39pm 18.1 10.7 2.0 34 7.3 WSW 30 48 16 26 1010.2 1010.1 0.0
19/12:30pm 18.1 10.6 3.6 38 6.8 W 32 44 17 24 1010.5 1010.4 0.0
19/12:00pm 17.7 9.6 3.2 38 6.7 WSW 35 57 19 31 1011.1 1011.0 0.0
19/11:30am 17.4 9.9 3.3 39 6.5 WSW 32 50 17 27 1011.3 1011.2 0.0
19/11:00am 16.6 6.8 3.3 41 6.1 WSW 44 63 24 34 1011.7 1011.6 0.0
19/10:30am 16.8 7.8 4.8 45 5.7 WSW 41 65 22 35 1012.1 1012.0 0.0
19/10:00am 16.8 8.4 5.4 47 5.5 WSW 39 59 21 32 1012.5 1012.4 0.0
19/09:30am 17.7 10.6 6.3 47 5.6 WSW 33 52 18 28 1012.8 1012.6 0.0
19/09:17am 17.6 10.7 6.5 48 5.5 WSW 32 50 17 27 1012.8 1012.6 0.0
19/09:00am 17.6 10.1 6.2 47 5.6 WSW 35 50 19 27 1012.7 1012.5 2.6
19/08:30am 17.4 11.0 6.9 50 5.2 WSW 30 44 16 24 1012.5 1012.4 2.6
19/08:00am 17.0 12.0 9.4 61 4.0 WSW 26 43 14 23 1012.5 1012.4 2.6
19/07:30am 16.7 12.3 10.3 66 3.4 WSW 24 33 13 18 1012.4 1012.3 2.6
19/07:00am 16.7 13.4 11.6 72 2.8 W 20 32 11 17 1012.4 1012.3 2.6
19/06:30am 16.9 13.5 12.4 75 2.5 W 22 30 12 16 1012.2 1012.1 2.6
19/06:00am 17.2 13.4 12.3 73 2.7 W 24 33 13 18 1012.0 1011.9 2.6
19/05:30am 17.4 13.5 13.3 77 2.3 W 26 35 14 19 1011.7 1011.6 2.6
19/05:00am 17.6 14.3 14.9 84 1.6 W 26 37 14 20 1011.6 1011.5 2.6
19/04:30am 18.0 14.6 15.8 87 1.3 WNW 28 37 15 20 1011.2 1011.1 2.6
19/04:00am 18.4 14.8 16.2 87 1.3 WNW 30 41 16 22 1011.2 1011.1 2.6
19/03:30am 18.6 16.3 16.6 88 1.2 NW 24 32 13 17 1011.2 1011.1 2.6
19/03:00am 18.6 15.8 17.3 92 0.8 NW 28 37 15 20 1011.4 1011.3 2.4
19/02:30am 17.0 14.8 15.9 93 0.7 W 22 28 12 15 1012.1 1012.0 2.4
19/02:00am 16.8 15.1 16.2 96 0.4 WNW 20 24 11 13 1012.4 1012.3 2.4
19/01:47am 17.1 13.5 15.3 89 1.1 W 28 46 15 25 1012.8 1012.6 2.0
19/01:30am 18.6 14.5 16.0 85 1.6 WNW 32 44 17 24 1013.2 1013.0 0.0
19/01:00am 18.6 14.9 17.4 93 0.7 WNW 33 50 18 27 1013.5 1013.3 0.0
19/12:44am 18.9 14.8 18.2 96 0.4 NW 37 56 20 30 1013.4 1013.2 0.0
19/12:30am 19.1 15.1 18.4 96 0.4 NW 37 52 20 28 1013.1 1012.9 0.0
19/12:00am 19.4 16.0 17.7 90 1.0 NW 32 44 17 24 1013.5 1013.3 0.0
 
Date/Time
EST
Temp
°C
App
Temp
°C
Dew
Point
°C
Rel
Hum
%
Delta-T
°C
Wind Press
QNH
hPa
Press
MSL
hPa
Rain since
9am
mm
Dir  Spd
km/h
Gust
km/h
Spd
kts
Gust
kts
18/11:30pm 19.7 15.4 16.9 84 1.7 NNW 35 48 19 26 1013.6 1013.4 0.0
18/11:02pm 19.8 15.5 16.8 83 1.8 NNW 35 54 19 29 1013.7 1013.5 0.0
18/11:00pm 19.8 15.5 17.0 84 1.7 NNW 35 50 19 27 1013.7 1013.5 0.0
18/10:33pm 19.8 15.6 17.2 85 1.6 NNW 35 54 19 29 1014.1 1013.9 0.0
18/10:30pm 20.0 15.7 17.8 87 1.4 NNW 37 50 20 27 1014.1 1013.9 0.0
18/10:00pm 20.1 15.5 18.8 92 0.8 NNW 41 56 22 30 1014.4 1014.2 0.0
18/09:30pm 20.2 14.8 18.0 87 1.4 NNW 43 54 23 29 1014.6 1014.4 0.0
18/09:00pm 20.3 15.4 18.2 88 1.3 N 41 52 22 28 1014.9 1014.7 0.0
18/08:30pm 20.4 15.3 17.8 85 1.6 N 41 50 22 27 1015.3 1015.1 0.0
18/08:00pm 20.4 16.3 18.3 88 1.3 N 37 46 20 25 1015.6 1015.4 0.0
18/07:30pm 20.3 16.9 18.2 88 1.3 N 33 43 18 23 1015.6 1015.4 0.0
18/07:00pm 20.2 17.1 18.3 89 1.2 N 32 46 17 25 1015.6 1015.4 0.0
18/06:30pm 20.2 17.7 18.9 92 0.8 N 30 41 16 22 1015.6 1015.4 0.0
18/06:00pm 20.1 17.6 18.9 93 0.8 N 30 37 16 20 1015.5 1015.3 0.0
18/05:30pm 20.2 18.0 18.7 91 0.9 N 28 35 15 19 1015.4 1015.2 0.0
18/05:00pm 20.4 18.6 17.8 85 1.6 N 24 35 13 19 1015.4 1015.2 0.0
18/04:30pm 20.8 18.6 16.8 78 2.4 N 24 32 13 17 1015.4 1015.2 0.0
18/04:00pm 21.1 19.1 17.3 79 2.3 N 24 33 13 18 1015.4 1015.2 0.0
18/03:30pm 21.4 18.9 17.0 76 2.7 N 26 35 14 19 1015.5 1015.3 0.0
18/03:00pm 21.4 18.6 17.2 77 2.6 N 28 39 15 21 1015.5 1015.3 0.0
18/02:30pm 21.6 19.0 17.8 79 2.4 N 28 35 15 19 1015.7 1015.5 0.0
18/02:00pm 21.5 18.6 17.9 80 2.2 N 30 37 16 20 1016.0 1015.8 0.0
18/01:30pm 21.5 17.9 17.3 77 2.6 NNW 32 41 17 22 1016.5 1016.3 0.0
18/01:00pm 21.8 19.9 17.6 77 2.6 NNW 24 33 13 18 1016.9 1016.8 0.0
18/12:30pm 21.9 19.9 17.5 76 2.7 NNW 24 32 13 17 1017.5 1017.4 0.0
18/12:00pm 21.7 19.8 17.7 78 2.5 NNW 24 33 13 18 1018.1 1018.0 0.0
18/11:30am 21.0 18.8 16.8 77 2.6 NW 24 33 13 18 1018.8 1018.7 0.0
18/11:00am 20.7 18.4 16.7 78 2.4 NW 24 32 13 17 1019.5 1019.4 0.0
18/10:30am 20.6 19.2 17.0 80 2.2 NW 20 30 11 16 1020.1 1020.0 0.0
18/10:00am 20.4 18.5 16.8 80 2.2 NW 22 30 12 16 1020.3 1020.2 0.0
18/09:30am 20.3 18.5 16.9 81 2.1 NW 22 30 12 16 1020.5 1020.4 0.0
18/09:00am 19.9 17.3 16.9 83 1.8 NW 26 32 14 17 1020.5 1020.4 0.0

Other Formats:

Comma delimited format used in spreadsheet applications
http://www.bom.gov.au/fwo/IDQ60801/IDQ60801.94594.axf

JavaScript Object Notation format (JSON) in row-major order
http://www.bom.gov.au/fwo/IDQ60801/IDQ60801.94594.json